sensor_id;sensor_type;location;lat;lon;timestamp;pressure;altitude;pressure_sealevel;temperature
70123;BMP280;57489;37.404;24.920;2023-05-29T00:06:32;99600.19;;;25.46
70123;BMP280;57489;37.404;24.920;2023-05-29T00:23:58;99611.22;;;25.38
70123;BMP280;57489;37.404;24.920;2023-05-29T00:29:50;99605.81;;;25.34
70123;BMP280;57489;37.404;24.920;2023-05-29T00:46:24;99592.34;;;25.27
70123;BMP280;57489;37.404;24.920;2023-05-29T00:52:11;99596.22;;;25.29
70123;BMP280;57489;37.404;24.920;2023-05-29T01:03:22;99593.09;;;25.27
70123;BMP280;57489;37.404;24.920;2023-05-29T01:09:03;99593.09;;;25.27
70123;BMP280;57489;37.404;24.920;2023-05-29T03:27:35;99614.66;;;24.90
70123;BMP280;57489;37.404;24.920;2023-05-29T03:33:18;99620.03;;;24.90
70123;BMP280;57489;37.404;24.920;2023-05-29T03:38:46;99624.25;;;24.91
70123;BMP280;57489;37.404;24.920;2023-05-29T03:44:26;99621.22;;;24.96
70123;BMP280;57489;37.404;24.920;2023-05-29T03:56:00;99631.63;;;25.01
70123;BMP280;57489;37.404;24.920;2023-05-29T04:07:09;99625.63;;;25.12
70123;BMP280;57489;37.404;24.920;2023-05-29T04:13:02;99632.19;;;25.21
70123;BMP280;57489;37.404;24.920;2023-05-29T04:18:37;99641.00;;;25.18
70123;BMP280;57489;37.404;24.920;2023-05-29T04:29:18;99642.28;;;25.35
70123;BMP280;57489;37.404;24.920;2023-05-29T04:35:00;99642.34;;;25.42
70123;BMP280;57489;37.404;24.920;2023-05-29T04:40:40;99652.00;;;25.50
70123;BMP280;57489;37.404;24.920;2023-05-29T04:46:25;99653.22;;;25.56
70123;BMP280;57489;37.404;24.920;2023-05-29T04:52:07;99655.53;;;25.61
70123;BMP280;57489;37.404;24.920;2023-05-29T05:25:48;99700.25;;;25.84
70123;BMP280;57489;37.404;24.920;2023-05-29T05:31:23;99696.78;;;25.83
70123;BMP280;57489;37.404;24.920;2023-05-29T05:42:32;99700.34;;;25.95
70123;BMP280;57489;37.404;24.920;2023-05-29T05:48:17;99710.72;;;26.00
70123;BMP280;57489;37.404;24.920;2023-05-29T05:59:58;99722.09;;;26.37
70123;BMP280;57489;37.404;24.920;2023-05-29T06:05:50;99731.25;;;26.26
70123;BMP280;57489;37.404;24.920;2023-05-29T06:22:36;99740.09;;;26.30
70123;BMP280;57489;37.404;24.920;2023-05-29T06:28:31;99740.88;;;26.30
70123;BMP280;57489;37.404;24.920;2023-05-29T06:34:02;99740.50;;;26.32
70123;BMP280;57489;37.404;24.920;2023-05-29T06:50:47;99749.81;;;26.48
70123;BMP280;57489;37.404;24.920;2023-05-29T06:56:34;99746.00;;;26.53
70123;BMP280;57489;37.404;24.920;2023-05-29T07:01:56;99744.50;;;26.63
70123;BMP280;57489;37.404;24.920;2023-05-29T07:06:57;99735.31;;;26.74
70123;BMP280;57489;37.404;24.920;2023-05-29T07:11:57;99736.91;;;26.83
70123;BMP280;57489;37.404;24.920;2023-05-29T07:16:58;99726.88;;;26.90
70123;BMP280;57489;37.404;24.920;2023-05-29T07:21:58;99738.81;;;26.86
70123;BMP280;57489;37.404;24.920;2023-05-29T07:26:58;99736.06;;;26.71
70123;BMP280;57489;37.404;24.920;2023-05-29T07:31:59;99746.78;;;26.64
70123;BMP280;57489;37.404;24.920;2023-05-29T07:37:04;99747.16;;;26.59
70123;BMP280;57489;37.404;24.920;2023-05-29T07:42:05;99741.38;;;26.50
70123;BMP280;57489;37.404;24.920;2023-05-29T07:47:05;99739.91;;;26.63
70123;BMP280;57489;37.404;24.920;2023-05-29T07:52:06;99737.63;;;26.72
70123;BMP280;57489;37.404;24.920;2023-05-29T07:57:06;99741.13;;;26.84
70123;BMP280;57489;37.404;24.920;2023-05-29T08:02:07;99754.59;;;26.84
70123;BMP280;57489;37.404;24.920;2023-05-29T08:07:08;99746.91;;;26.86
70123;BMP280;57489;37.404;24.920;2023-05-29T08:12:08;99752.28;;;26.86
70123;BMP280;57489;37.404;24.920;2023-05-29T08:17:09;99753.09;;;26.90
70123;BMP280;57489;37.404;24.920;2023-05-29T08:22:12;99756.16;;;26.92
70123;BMP280;57489;37.404;24.920;2023-05-29T08:27:13;99753.50;;;26.99
70123;BMP280;57489;37.404;24.920;2023-05-29T08:32:13;99756.22;;;27.17
70123;BMP280;57489;37.404;24.920;2023-05-29T08:37:14;99771.19;;;27.03
70123;BMP280;57489;37.404;24.920;2023-05-29T08:42:21;99783.88;;;26.96
70123;BMP280;57489;37.404;24.920;2023-05-29T08:47:22;99783.88;;;27.03
70123;BMP280;57489;37.404;24.920;2023-05-29T08:52:29;99786.22;;;27.12
70123;BMP280;57489;37.404;24.920;2023-05-29T08:57:32;99789.66;;;27.05
70123;BMP280;57489;37.404;24.920;2023-05-29T09:02:34;99791.63;;;27.08
70123;BMP280;57489;37.404;24.920;2023-05-29T09:07:35;99784.66;;;27.07
70123;BMP280;57489;37.404;24.920;2023-05-29T09:12:35;99780.81;;;27.04
70123;BMP280;57489;37.404;24.920;2023-05-29T09:17:36;99792.34;;;27.05
70123;BMP280;57489;37.404;24.920;2023-05-29T09:22:36;99786.59;;;27.10
70123;BMP280;57489;37.404;24.920;2023-05-29T09:27:39;99797.34;;;26.96
70123;BMP280;57489;37.404;24.920;2023-05-29T09:32:40;99790.78;;;26.90
70123;BMP280;57489;37.404;24.920;2023-05-29T09:37:41;99790.75;;;26.83
70123;BMP280;57489;37.404;24.920;2023-05-29T09:42:42;99796.91;;;26.80
70123;BMP280;57489;37.404;24.920;2023-05-29T09:47:42;99781.50;;;26.84
70123;BMP280;57489;37.404;24.920;2023-05-29T09:52:43;99784.59;;;26.86
70123;BMP280;57489;37.404;24.920;2023-05-29T09:57:46;99779.56;;;26.81
70123;BMP280;57489;37.404;24.920;2023-05-29T10:02:47;99779.28;;;27.07
70123;BMP280;57489;37.404;24.920;2023-05-29T10:07:50;99777.75;;;27.10
70123;BMP280;57489;37.404;24.920;2023-05-29T10:12:53;99781.59;;;27.05
70123;BMP280;57489;37.404;24.920;2023-05-29T10:17:59;99784.31;;;27.19
70123;BMP280;57489;37.404;24.920;2023-05-29T10:23:01;99773.94;;;27.18
70123;BMP280;57489;37.404;24.920;2023-05-29T10:28:03;99768.16;;;27.26
70123;BMP280;57489;37.404;24.920;2023-05-29T10:33:33;99763.94;;;27.32
70123;BMP280;57489;37.404;24.920;2023-05-29T10:38:37;99766.25;;;27.30
70123;BMP280;57489;37.404;24.920;2023-05-29T10:43:37;99767.81;;;27.35
70123;BMP280;57489;37.404;24.920;2023-05-29T10:48:39;99766.63;;;27.18
70123;BMP280;57489;37.404;24.920;2023-05-29T10:53:40;99773.16;;;27.24
70123;BMP280;57489;37.404;24.920;2023-05-29T10:58:41;99771.25;;;27.25
70123;BMP280;57489;37.404;24.920;2023-05-29T11:03:41;99767.78;;;27.24
70123;BMP280;57489;37.404;24.920;2023-05-29T11:08:44;99770.09;;;27.22
70123;BMP280;57489;37.404;24.920;2023-05-29T11:13:52;99767.78;;;27.31
70123;BMP280;57489;37.404;24.920;2023-05-29T11:18:53;99777.81;;;27.27
70123;BMP280;57489;37.404;24.920;2023-05-29T11:23:53;99785.06;;;27.20
70123;BMP280;57489;37.404;24.920;2023-05-29T11:28:57;99767.00;;;27.20
70123;BMP280;57489;37.404;24.920;2023-05-29T11:33:59;99774.66;;;27.04
70123;BMP280;57489;37.404;24.920;2023-05-29T11:39:01;99775.06;;;27.06
70123;BMP280;57489;37.404;24.920;2023-05-29T11:44:04;99775.41;;;26.97
70123;BMP280;57489;37.404;24.920;2023-05-29T11:49:04;99768.50;;;26.96
70123;BMP280;57489;37.404;24.920;2023-05-29T11:54:05;99781.50;;;26.84
70123;BMP280;57489;37.404;24.920;2023-05-29T11:59:10;99771.47;;;26.81
70123;BMP280;57489;37.404;24.920;2023-05-29T12:04:15;99771.91;;;26.83
70123;BMP280;57489;37.404;24.920;2023-05-29T12:09:29;99774.56;;;26.75
70123;BMP280;57489;37.404;24.920;2023-05-29T12:14:30;99771.50;;;26.88
70123;BMP280;57489;37.404;24.920;2023-05-29T12:19:31;99782.25;;;26.81
70123;BMP280;57489;37.404;24.920;2023-05-29T12:24:31;99759.94;;;26.73
70123;BMP280;57489;37.404;24.920;2023-05-29T12:29:33;99756.13;;;26.85
70123;BMP280;57489;37.404;24.920;2023-05-29T12:34:34;99751.56;;;26.96
70123;BMP280;57489;37.404;24.920;2023-05-29T12:39:35;99753.53;;;27.06
70123;BMP280;57489;37.404;24.920;2023-05-29T12:44:37;99748.88;;;27.06
70123;BMP280;57489;37.404;24.920;2023-05-29T12:49:38;99747.75;;;27.11
70123;BMP280;57489;37.404;24.920;2023-05-29T12:54:38;99750.06;;;27.09
70123;BMP280;57489;37.404;24.920;2023-05-29T12:59:39;99756.97;;;27.17
70123;BMP280;57489;37.404;24.920;2023-05-29T13:04:39;99754.69;;;27.19
70123;BMP280;57489;37.404;24.920;2023-05-29T13:09:39;99747.00;;;27.25
70123;BMP280;57489;37.404;24.920;2023-05-29T13:14:40;99747.78;;;27.25
70123;BMP280;57489;37.404;24.920;2023-05-29T13:19:40;99740.84;;;27.28
70123;BMP280;57489;37.404;24.920;2023-05-29T13:24:41;99737.00;;;27.25
70123;BMP280;57489;37.404;24.920;2023-05-29T13:29:43;99754.69;;;27.26
70123;BMP280;57489;37.404;24.920;2023-05-29T13:34:43;99747.00;;;27.28
70123;BMP280;57489;37.404;24.920;2023-05-29T13:39:44;99753.94;;;27.33
70123;BMP280;57489;37.404;24.920;2023-05-29T13:44:45;99757.41;;;27.33
70123;BMP280;57489;37.404;24.920;2023-05-29T13:49:45;99751.63;;;27.31
70123;BMP280;57489;37.404;24.920;2023-05-29T13:54:46;99746.59;;;27.26
70123;BMP280;57489;37.404;24.920;2023-05-29T13:59:46;99756.25;;;27.27
70123;BMP280;57489;37.404;24.920;2023-05-29T14:04:47;99752.75;;;27.27
70123;BMP280;57489;37.404;24.920;2023-05-29T14:09:47;99751.22;;;27.22
70123;BMP280;57489;37.404;24.920;2023-05-29T14:14:48;99743.94;;;27.30
70123;BMP280;57489;37.404;24.920;2023-05-29T14:19:48;99753.16;;;27.18
70123;BMP280;57489;37.404;24.920;2023-05-29T14:24:48;99760.09;;;27.16
70123;BMP280;57489;37.404;24.920;2023-05-29T14:29:49;99770.47;;;27.21
70123;BMP280;57489;37.404;24.920;2023-05-29T14:34:49;99763.16;;;27.25
70123;BMP280;57489;37.404;24.920;2023-05-29T14:39:50;99767.00;;;27.20
70123;BMP280;57489;37.404;24.920;2023-05-29T14:44:50;99770.06;;;27.15
70123;BMP280;57489;37.404;24.920;2023-05-29T14:49:51;99767.72;;;27.10
70123;BMP280;57489;37.404;24.920;2023-05-29T14:54:51;99768.91;;;27.09
70123;BMP280;57489;37.404;24.920;2023-05-29T14:59:52;99764.28;;;27.10
70123;BMP280;57489;37.404;24.920;2023-05-29T15:04:52;99771.97;;;27.04
70123;BMP280;57489;37.404;24.920;2023-05-29T15:09:53;99779.66;;;26.98
70123;BMP280;57489;37.404;24.920;2023-05-29T15:14:53;99786.94;;;26.94
70123;BMP280;57489;37.404;24.920;2023-05-29T15:19:53;99785.41;;;26.90
70123;BMP280;57489;37.404;24.920;2023-05-29T15:24:54;99783.00;;;26.77
70123;BMP280;57489;37.404;24.920;2023-05-29T15:30:08;99791.50;;;26.80
70123;BMP280;57489;37.404;24.920;2023-05-29T15:35:09;99796.47;;;26.81
70123;BMP280;57489;37.404;24.920;2023-05-29T15:40:10;99797.66;;;26.76
70123;BMP280;57489;37.404;24.920;2023-05-29T15:45:10;99800.72;;;26.75
70123;BMP280;57489;37.404;24.920;2023-05-29T15:50:11;99810.31;;;26.76
70123;BMP280;57489;37.404;24.920;2023-05-29T15:55:11;99802.25;;;26.72
70123;BMP280;57489;37.404;24.920;2023-05-29T16:00:12;99803.38;;;26.71
70123;BMP280;57489;37.404;24.920;2023-05-29T16:05:13;99813.38;;;26.67
70123;BMP280;57489;37.404;24.920;2023-05-29T16:10:14;99805.28;;;26.64
70123;BMP280;57489;37.404;24.920;2023-05-29T16:15:15;99812.56;;;26.63
70123;BMP280;57489;37.404;24.920;2023-05-29T16:20:15;99807.94;;;26.60
70123;BMP280;57489;37.404;24.920;2023-05-29T16:25:16;99822.16;;;26.57
70123;BMP280;57489;37.404;24.920;2023-05-29T16:30:16;99818.66;;;26.53
70123;BMP280;57489;37.404;24.920;2023-05-29T16:35:17;99832.13;;;26.53
70123;BMP280;57489;37.404;24.920;2023-05-29T16:40:17;99831.72;;;26.47
70123;BMP280;57489;37.404;24.920;2023-05-29T16:45:18;99837.41;;;26.42
70123;BMP280;57489;37.404;24.920;2023-05-29T16:50:18;99841.75;;;26.61
70123;BMP280;57489;37.404;24.920;2023-05-29T16:55:19;99840.75;;;26.76
70123;BMP280;57489;37.404;24.920;2023-05-29T17:00:19;99843.03;;;26.78
70123;BMP280;57489;37.404;24.920;2023-05-29T17:05:20;99851.19;;;26.89
70123;BMP280;57489;37.404;24.920;2023-05-29T17:10:20;99854.59;;;26.86
70123;BMP280;57489;37.404;24.920;2023-05-29T17:15:21;99856.16;;;26.87
70123;BMP280;57489;37.404;24.920;2023-05-29T17:20:21;99860.78;;;26.90
70123;BMP280;57489;37.404;24.920;2023-05-29T17:25:22;99869.25;;;26.92
70123;BMP280;57489;37.404;24.920;2023-05-29T17:30:22;99865.75;;;26.88
70123;BMP280;57489;37.404;24.920;2023-05-29T17:35:23;99874.94;;;26.72
70123;BMP280;57489;37.404;24.920;2023-05-29T17:40:24;99871.41;;;26.68
70123;BMP280;57489;37.404;24.920;2023-05-29T17:45:25;99877.19;;;26.63
70123;BMP280;57489;37.404;24.920;2023-05-29T17:50:25;99873.66;;;26.56
70123;BMP280;57489;37.404;24.920;2023-05-29T17:55:26;99876.72;;;26.51
70123;BMP280;57489;37.404;24.920;2023-05-29T18:00:26;99880.97;;;26.55
70123;BMP280;57489;37.404;24.920;2023-05-29T18:05:27;99884.06;;;26.57
70123;BMP280;57489;37.404;24.920;2023-05-29T18:10:27;99885.59;;;26.58
70123;BMP280;57489;37.404;24.920;2023-05-29T18:15:28;99892.88;;;26.54
70123;BMP280;57489;37.404;24.920;2023-05-29T18:20:28;99893.72;;;26.65
70123;BMP280;57489;37.404;24.920;2023-05-29T18:25:29;99899.09;;;26.65
70123;BMP280;57489;37.404;24.920;2023-05-29T18:30:29;99907.59;;;26.71
70123;BMP280;57489;37.404;24.920;2023-05-29T18:35:30;99913.00;;;26.74
70123;BMP280;57489;37.404;24.920;2023-05-29T18:40:30;99915.31;;;26.76
70123;BMP280;57489;37.404;24.920;2023-05-29T18:45:31;99922.28;;;26.77
70123;BMP280;57489;37.404;24.920;2023-05-29T18:50:31;99922.94;;;26.63
70123;BMP280;57489;37.404;24.920;2023-05-29T18:55:32;99934.97;;;26.76
70123;BMP280;57489;37.404;24.920;2023-05-29T19:00:32;99939.94;;;26.74
70123;BMP280;57489;37.404;24.920;2023-05-29T19:05:35;99942.19;;;26.69
70123;BMP280;57489;37.404;24.920;2023-05-29T19:10:36;99945.69;;;26.69
70123;BMP280;57489;37.404;24.920;2023-05-29T19:15:37;99950.69;;;26.74
70123;BMP280;57489;37.404;24.920;2023-05-29T19:20:38;99954.47;;;26.66
70123;BMP280;57489;37.404;24.920;2023-05-29T19:25:38;99955.25;;;26.63
70123;BMP280;57489;37.404;24.920;2023-05-29T19:30:38;99949.84;;;26.63
70123;BMP280;57489;37.404;24.920;2023-05-29T19:35:39;99954.06;;;26.57
70123;BMP280;57489;37.404;24.920;2023-05-29T19:40:39;99955.19;;;26.56
70123;BMP280;57489;37.404;24.920;2023-05-29T19:45:40;99962.84;;;26.54
70123;BMP280;57489;37.404;24.920;2023-05-29T19:50:41;99962.13;;;26.57
70123;BMP280;57489;37.404;24.920;2023-05-29T19:55:41;99964.41;;;26.55
70123;BMP280;57489;37.404;24.920;2023-05-29T20:00:42;99964.81;;;26.64
70123;BMP280;57489;37.404;24.920;2023-05-29T20:05:42;99966.00;;;26.63
70123;BMP280;57489;37.404;24.920;2023-05-29T20:10:43;99952.91;;;26.62
70123;BMP280;57489;37.404;24.920;2023-05-29T20:15:43;99961.00;;;26.65
70123;BMP280;57489;37.404;24.920;2023-05-29T20:20:44;99956.06;;;26.67
70123;BMP280;57489;37.404;24.920;2023-05-29T20:25:44;99959.44;;;26.64
70123;BMP280;57489;37.404;24.920;2023-05-29T20:30:45;99964.47;;;26.62
70123;BMP280;57489;37.404;24.920;2023-05-29T20:35:45;99963.66;;;26.62
70123;BMP280;57489;37.404;24.920;2023-05-29T20:40:46;99969.09;;;26.65
70123;BMP280;57489;37.404;24.920;2023-05-29T20:45:47;99972.22;;;26.67
70123;BMP280;57489;37.404;24.920;2023-05-29T20:50:48;99964.41;;;26.59
70123;BMP280;57489;37.404;24.920;2023-05-29T20:55:48;99967.53;;;26.57
70123;BMP280;57489;37.404;24.920;2023-05-29T21:00:49;99961.31;;;26.53
70123;BMP280;57489;37.404;24.920;2023-05-29T21:05:50;99957.50;;;26.61
70123;BMP280;57489;37.404;24.920;2023-05-29T21:10:51;99956.75;;;26.57
70123;BMP280;57489;37.404;24.920;2023-05-29T21:15:51;99960.63;;;26.63
70123;BMP280;57489;37.404;24.920;2023-05-29T21:20:52;99964.41;;;26.55
70123;BMP280;57489;37.404;24.920;2023-05-29T21:25:52;99977.53;;;26.60
70123;BMP280;57489;37.404;24.920;2023-05-29T21:30:53;99980.22;;;26.60
70123;BMP280;57489;37.404;24.920;2023-05-29T21:35:53;99983.66;;;26.57
70123;BMP280;57489;37.404;24.920;2023-05-29T21:40:54;99983.66;;;26.57
70123;BMP280;57489;37.404;24.920;2023-05-29T21:45:54;99989.00;;;26.54
70123;BMP280;57489;37.404;24.920;2023-05-29T21:50:55;99978.22;;;26.54
70123;BMP280;57489;37.404;24.920;2023-05-29T21:55:55;99979.00;;;26.54
70123;BMP280;57489;37.404;24.920;2023-05-29T22:00:56;99969.00;;;26.51
70123;BMP280;57489;37.404;24.920;2023-05-29T22:05:58;99978.16;;;26.46
70123;BMP280;57489;37.404;24.920;2023-05-29T22:10:58;99973.56;;;26.47
70123;BMP280;57489;37.404;24.920;2023-05-29T22:15:59;99966.22;;;26.44
70123;BMP280;57489;37.404;24.920;2023-05-29T22:21:00;99955.03;;;26.42
70123;BMP280;57489;37.404;24.920;2023-05-29T22:26:01;99958.84;;;26.34
70123;BMP280;57489;37.404;24.920;2023-05-29T22:31:01;99953.47;;;26.34
70123;BMP280;57489;37.404;24.920;2023-05-29T22:36:02;99953.47;;;26.37
70123;BMP280;57489;37.404;24.920;2023-05-29T22:41:02;99951.84;;;26.26
70123;BMP280;57489;37.404;24.920;2023-05-29T22:46:03;99944.84;;;26.17
70123;BMP280;57489;37.404;24.920;2023-05-29T22:51:05;99941.72;;;26.15
70123;BMP280;57489;37.404;24.920;2023-05-29T22:56:06;99939.38;;;26.07
70123;BMP280;57489;37.404;24.920;2023-05-29T23:01:07;99931.63;;;26.02
70123;BMP280;57489;37.404;24.920;2023-05-29T23:06:08;99930.84;;;25.98
70123;BMP280;57489;37.404;24.920;2023-05-29T23:11:08;99923.09;;;25.96
70123;BMP280;57489;37.404;24.920;2023-05-29T23:16:08;99934.97;;;25.88
70123;BMP280;57489;37.404;24.920;2023-05-29T23:21:09;99943.34;;;25.83
70123;BMP280;57489;37.404;24.920;2023-05-29T23:26:09;99942.94;;;25.81
70123;BMP280;57489;37.404;24.920;2023-05-29T23:31:10;99942.91;;;25.77
70123;BMP280;57489;37.404;24.920;2023-05-29T23:36:10;99939.03;;;25.75
70123;BMP280;57489;37.404;24.920;2023-05-29T23:41:11;99937.38;;;25.67
70123;BMP280;57489;37.404;24.920;2023-05-29T23:46:11;99941.22;;;25.66
70123;BMP280;57489;37.404;24.920;2023-05-29T23:51:11;99948.13;;;25.63
70123;BMP280;57489;37.404;24.920;2023-05-29T23:56:12;99943.09;;;25.61
